Time;durP1;ratioP1;P1;durP2;ratioP2;P2;SDS_P1;SDS_P2;PMS_P1;PMS_P2;Temp;Humidity;BMP_temperature;BMP_pressure;BME280_temperature;BME280_humidity;BME280_pressure;Samples;Min_cycle;Max_cycle;Signal;HPM_P1;HPM_P2
2021/01/04 00:00:04;;;;;;;10.10;3.15;;;;;;;3.74;85.19;102051.75;5013949;28;20111;-54
2021/01/04 00:02:51;;;;;;;13.27;2.78;;;;;;;3.75;85.33;102052.59;5049772;28;20065;-57
2021/01/04 00:05:32;;;;;;;13.38;3.20;;;;;;;3.75;85.47;102042.38;5049792;28;20072;-53
2021/01/04 00:08:26;;;;;;;10.23;2.83;;;;;;;3.74;85.66;102048.97;5049811;28;20076;-57
2021/01/04 00:11:34;;;;;;;13.13;2.72;;;;;;;3.72;86.13;102045.59;5049839;28;20045;-51
2021/01/04 00:14:11;;;;;;;14.00;2.90;;;;;;;3.72;86.41;102044.75;5050742;28;20049;-57
2021/01/04 00:16:49;;;;;;;14.07;2.97;;;;;;;3.72;86.49;102048.34;5050353;28;20049;-57
2021/01/04 00:19:23;;;;;;;12.23;2.90;;;;;;;3.72;86.96;102042.00;5049928;28;20446;-56
2021/01/04 00:21:59;;;;;;;13.18;3.35;;;;;;;3.75;86.63;102041.53;5049890;28;20056;-58
2021/01/04 00:24:38;;;;;;;13.55;3.03;;;;;;;3.75;86.85;102038.78;5049904;28;20055;-55
2021/01/04 00:27:10;;;;;;;12.32;2.80;;;;;;;3.76;87.04;102038.56;5049906;28;20049;-53
2021/01/04 00:29:37;;;;;;;11.73;2.67;;;;;;;3.77;86.85;102043.00;5050410;28;20114;-56
2021/01/04 00:32:15;;;;;;;13.32;2.60;;;;;;;3.77;86.79;102048.53;5049231;28;20049;-56
2021/01/04 00:34:47;;;;;;;14.48;3.08;;;;;;;3.75;86.59;102038.78;5050246;28;20049;-55
2021/01/04 00:37:43;;;;;;;11.25;2.53;;;;;;;3.77;86.40;102042.16;5050274;28;20130;-56
2021/01/04 00:40:18;;;;;;;11.63;3.10;;;;;;;3.77;86.31;102051.28;5052673;28;20044;-55
2021/01/04 00:43:05;;;;;;;12.73;3.00;;;;;;;3.77;86.10;102044.94;5054120;28;20060;-57
2021/01/04 00:45:39;;;;;;;12.23;3.00;;;;;;;3.76;85.84;102041.31;5053711;28;20546;-57
2021/01/04 00:48:14;;;;;;;11.75;2.95;;;;;;;3.75;85.89;102039.63;5053572;28;20551;-53
2021/01/04 00:51:02;;;;;;;14.25;3.40;;;;;;;3.76;85.79;102038.56;5054034;28;20137;-56
2021/01/04 00:53:32;;;;;;;13.95;2.92;;;;;;;3.75;85.86;102047.91;5053077;28;20059;-56
2021/01/04 00:56:17;;;;;;;10.10;2.83;;;;;;;3.72;85.88;102037.31;5053828;28;20496;-54
2021/01/04 00:59:01;;;;;;;13.68;3.00;;;;;;;3.71;85.94;102043.06;5053427;28;20084;-59
2021/01/04 01:01:33;;;;;;;12.05;2.60;;;;;;;3.68;86.35;102036.06;5053103;28;20113;-61
2021/01/04 01:04:19;;;;;;;7.78;2.63;;;;;;;3.67;86.31;102031.63;5053690;28;20112;-64
2021/01/04 01:06:54;;;;;;;11.15;2.63;;;;;;;3.67;86.61;102050.09;5052043;28;20419;-65
2021/01/04 01:09:21;;;;;;;10.00;2.50;;;;;;;3.66;86.54;102049.25;5053325;28;20456;-63
2021/01/04 01:12:10;;;;;;;10.50;2.42;;;;;;;3.62;86.75;102042.47;5053525;28;20037;-61
2021/01/04 01:14:44;;;;;;;7.65;2.47;;;;;;;3.59;86.79;102048.47;5052963;28;20389;-59
2021/01/04 01:17:38;;;;;;;9.88;2.70;;;;;;;3.58;86.83;102051.44;5033765;28;20046;-60
2021/01/04 01:20:11;;;;;;;10.95;2.40;;;;;;;3.56;87.28;102048.06;5051711;28;20510;-61
2021/01/04 01:22:41;;;;;;;11.90;2.58;;;;;;;3.58;87.06;102046.78;5053237;28;20071;-60
2021/01/04 01:25:11;;;;;;;8.45;2.50;;;;;;;3.58;86.99;102041.25;5053078;28;20045;-61
2021/01/04 01:27:57;;;;;;;11.70;3.30;;;;;;;3.56;87.11;102037.88;5053486;28;20067;-61
2021/01/04 01:30:39;;;;;;;11.85;2.65;;;;;;;3.54;87.25;102048.28;5053107;28;20533;-61
2021/01/04 01:33:51;;;;;;;10.98;3.25;;;;;;;3.55;87.29;102044.47;5053558;28;20051;-60
2021/01/04 01:36:32;;;;;;;9.75;2.92;;;;;;;3.50;87.44;102051.72;5051876;28;20037;-60
2021/01/04 01:39:23;;;;;;;8.25;2.88;;;;;;;3.53;87.24;102051.28;5053023;28;20069;-60
2021/01/04 01:42:32;;;;;;;8.02;2.83;;;;;;;3.56;87.28;102048.91;5043241;28;20033;-59
2021/01/04 01:45:06;;;;;;;10.75;3.13;;;;;;;3.52;87.11;102042.16;5052776;28;20079;-60
2021/01/04 01:47:45;;;;;;;7.90;2.58;;;;;;;3.57;87.09;102045.09;5033116;28;20069;-59
2021/01/04 01:50:22;;;;;;;13.70;2.83;;;;;;;3.60;87.19;102041.00;5043094;28;20106;-60
2021/01/04 01:53:02;;;;;;;12.77;3.30;;;;;;;3.61;87.14;102050.97;5052931;28;20049;-59
2021/01/04 01:55:50;;;;;;;13.35;3.10;;;;;;;3.61;87.13;102051.81;5052783;28;20450;-58
2021/01/04 01:59:05;;;;;;;13.85;2.92;;;;;;;3.62;87.05;102045.25;5053098;28;20131;-60
2021/01/04 02:01:40;;;;;;;10.15;2.30;;;;;;;3.61;87.03;102024.22;5052259;28;20049;-59
2021/01/04 02:04:14;;;;;;;10.65;2.70;;;;;;;3.65;86.86;102046.72;5052547;28;20053;-58
2021/01/04 02:06:52;;;;;;;11.43;3.10;;;;;;;3.66;86.81;102043.72;5052191;28;20044;-59
2021/01/04 02:09:25;;;;;;;9.95;2.78;;;;;;;3.65;86.54;102050.31;5052714;28;20123;-58
2021/01/04 02:11:58;;;;;;;12.10;3.10;;;;;;;3.64;86.74;102048.63;5051759;28;20049;-58
2021/01/04 02:14:32;;;;;;;11.00;3.63;;;;;;;3.60;86.50;102047.38;5052974;28;20076;-60
2021/01/04 02:17:10;;;;;;;13.48;3.00;;;;;;;3.62;86.40;102044.38;5051570;28;20051;-60
2021/01/04 02:19:52;;;;;;;9.90;2.50;;;;;;;3.64;86.50;102056.91;5052628;28;20136;-58
2021/01/04 02:22:42;;;;;;;11.57;2.80;;;;;;;3.64;86.24;102048.63;5052086;28;20055;-59
2021/01/04 02:25:10;;;;;;;11.43;2.95;;;;;;;3.62;86.45;102042.47;5051627;28;20044;-58
2021/01/04 02:27:40;;;;;;;11.80;2.95;;;;;;;3.66;85.99;102052.00;5050984;28;20045;-60
2021/01/04 02:30:08;;;;;;;11.88;3.78;;;;;;;3.66;86.30;102040.97;5052376;28;20122;-60
2021/01/04 02:32:35;;;;;;;8.88;2.78;;;;;;;3.66;86.15;102038.22;5051273;28;20045;-60
2021/01/04 02:35:03;;;;;;;11.50;3.10;;;;;;;3.67;86.21;102041.81;5052132;28;20045;-60
2021/01/04 02:37:30;;;;;;;11.80;2.70;;;;;;;3.66;86.23;102042.88;5051443;28;20052;-60
2021/01/04 02:39:59;;;;;;;13.07;3.13;;;;;;;3.62;86.08;102039.72;5051709;28;20491;-61
2021/01/04 02:42:30;;;;;;;10.63;2.40;;;;;;;3.65;86.08;102053.06;5051448;28;20407;-60
2021/01/04 02:44:59;;;;;;;12.45;2.90;;;;;;;3.65;86.14;102038.44;5052088;28;20044;-60
2021/01/04 02:48:08;;;;;;;11.00;2.85;;;;;;;3.65;86.10;102043.94;5050668;28;20044;-60
2021/01/04 02:50:42;;;;;;;8.43;2.38;;;;;;;3.61;86.17;102039.94;5036624;28;20555;-60
2021/01/04 02:53:45;;;;;;;12.82;3.42;;;;;;;3.60;86.19;102033.56;5050783;28;20076;-59
2021/01/04 02:56:22;;;;;;;11.43;2.83;;;;;;;3.57;86.30;102025.78;5051398;28;20060;-59
2021/01/04 02:59:16;;;;;;;11.02;2.70;;;;;;;3.53;86.31;102052.13;5051819;28;20195;-60
2021/01/04 03:01:49;;;;;;;9.73;2.78;;;;;;;3.53;86.41;102045.75;5050777;28;20534;-60
2021/01/04 03:04:19;;;;;;;14.45;3.90;;;;;;;3.53;86.55;102051.28;5051266;28;20041;-60
2021/01/04 03:06:56;;;;;;;9.65;2.80;;;;;;;3.50;86.50;102043.44;5050464;28;20051;-60
2021/01/04 03:09:24;;;;;;;12.80;3.00;;;;;;;3.48;86.79;102040.91;5051566;28;20165;-60
2021/01/04 03:11:51;;;;;;;14.55;2.97;;;;;;;3.45;86.85;102044.09;5050991;28;20160;-60
2021/01/04 03:14:47;;;;;;;10.65;2.90;;;;;;;3.47;86.57;102045.56;5047161;28;20048;-60
2021/01/04 03:17:20;;;;;;;11.10;3.10;;;;;;;3.43;86.81;102032.44;5050711;28;20623;-61
2021/01/04 03:19:53;;;;;;;7.45;3.10;;;;;;;3.41;86.66;102040.09;5051163;28;20049;-60
2021/01/04 03:22:19;;;;;;;12.65;3.20;;;;;;;3.43;86.72;102041.56;5050258;28;20067;-60
2021/01/04 03:24:48;;;;;;;10.23;2.83;;;;;;;3.43;86.73;102044.31;5050779;28;20049;-60
2021/01/04 03:27:21;;;;;;;12.70;3.10;;;;;;;3.43;86.79;102046.22;5050890;28;20466;-60
2021/01/04 03:29:48;;;;;;;12.57;3.38;;;;;;;3.42;86.98;102052.81;5047424;28;20506;-60
2021/01/04 03:32:15;;;;;;;12.30;3.30;;;;;;;3.43;86.86;102044.31;5049905;28;20246;-60
2021/01/04 03:34:42;;;;;;;9.48;2.67;;;;;;;3.43;86.83;102047.06;5050240;28;20047;-60
2021/01/04 03:37:09;;;;;;;11.35;3.08;;;;;;;3.45;86.88;102049.63;5051011;28;20061;-60
2021/01/04 03:39:35;;;;;;;7.93;2.88;;;;;;;3.47;86.86;102048.31;5050314;28;20049;-60
2021/01/04 03:42:03;;;;;;;10.73;3.22;;;;;;;3.48;86.56;102051.94;5050289;28;20488;-61
2021/01/04 03:44:30;;;;;;;8.38;2.97;;;;;;;3.50;86.64;102054.47;5050615;28;20049;-60
2021/01/04 03:46:59;;;;;;;11.80;3.10;;;;;;;3.48;86.44;102049.16;5049477;28;20049;-61
2021/01/04 03:49:27;;;;;;;11.70;3.05;;;;;;;3.46;86.56;102043.03;5049636;28;20045;-61
2021/01/04 03:51:55;;;;;;;10.10;3.08;;;;;;;3.44;86.62;102042.41;5050482;28;20056;-61
2021/01/04 03:54:23;;;;;;;12.52;2.92;;;;;;;3.44;86.63;102048.78;5048809;28;20572;-61
2021/01/04 03:56:52;;;;;;;9.27;3.38;;;;;;;3.44;86.79;102046.00;5050119;28;20051;-60
2021/01/04 03:59:19;;;;;;;12.05;3.30;;;;;;;3.47;86.55;102048.31;5050345;28;20553;-60
2021/01/04 04:01:49;;;;;;;12.05;3.20;;;;;;;3.48;86.79;102049.16;5050574;28;20041;-60
2021/01/04 04:04:17;;;;;;;9.75;2.78;;;;;;;3.48;86.73;102054.69;5050703;28;20045;-60
2021/01/04 04:06:45;;;;;;;12.43;3.00;;;;;;;3.47;86.43;102055.75;5051332;28;20056;-60
2021/01/04 04:09:13;;;;;;;11.48;3.10;;;;;;;3.49;86.34;102053.63;5051053;28;20041;-60
2021/01/04 04:11:39;;;;;;;12.35;3.08;;;;;;;3.52;86.46;102058.69;5040067;28;20444;-58
2021/01/04 04:14:07;;;;;;;11.93;3.28;;;;;;;3.53;86.47;102057.63;5050090;28;20130;-59
2021/01/04 04:16:34;;;;;;;13.10;2.83;;;;;;;3.53;86.46;102052.13;5050661;28;20553;-60
2021/01/04 04:19:01;;;;;;;12.13;2.92;;;;;;;3.53;86.53;102054.03;5051287;28;20467;-59
2021/01/04 04:21:29;;;;;;;11.02;2.97;;;;;;;3.51;86.53;102056.16;5051116;28;20080;-60
2021/01/04 04:23:55;;;;;;;14.68;3.30;;;;;;;3.53;86.42;102057.63;5050707;28;20083;-59
2021/01/04 04:26:24;;;;;;;11.50;3.15;;;;;;;3.49;86.64;102055.53;5051044;28;20144;-60
2021/01/04 04:28:52;;;;;;;12.48;3.10;;;;;;;3.50;86.43;102060.00;5051375;28;20152;-59
2021/01/04 04:31:19;;;;;;;12.07;2.88;;;;;;;3.51;86.46;102058.94;5050466;28;20052;-61
2021/01/04 04:33:47;;;;;;;13.73;3.00;;;;;;;3.46;86.39;102060.44;5051253;28;20090;-60
2021/01/04 04:36:17;;;;;;;12.45;3.00;;;;;;;3.49;86.29;102063.81;5051434;28;20045;-59
2021/01/04 04:38:45;;;;;;;14.63;3.08;;;;;;;3.47;86.60;102047.47;5050824;28;20077;-61
2021/01/04 04:41:20;;;;;;;9.85;2.85;;;;;;;3.47;86.50;102061.28;5050769;28;20504;-61
2021/01/04 04:43:51;;;;;;;14.73;3.28;;;;;;;3.47;86.40;102055.75;5051205;28;20049;-60
2021/01/04 04:46:43;;;;;;;12.93;2.78;;;;;;;3.46;86.33;102056.81;5050297;28;20124;-59
2021/01/04 04:49:16;;;;;;;12.07;3.10;;;;;;;3.43;86.48;102060.88;5051356;28;20056;-60
2021/01/04 04:51:55;;;;;;;12.02;3.45;;;;;;;3.46;86.21;102065.94;5050283;28;20508;-59
2021/01/04 04:54:36;;;;;;;9.38;2.90;;;;;;;3.47;86.31;102064.03;5051173;28;20103;-59
2021/01/04 04:57:18;;;;;;;13.25;3.30;;;;;;;3.47;86.26;102061.28;5050467;28;20045;-58
2021/01/04 05:00:04;;;;;;;13.18;3.17;;;;;;;3.50;86.17;102071.03;5050544;28;20500;-59
2021/01/04 05:02:43;;;;;;;11.15;2.72;;;;;;;3.49;86.26;102059.16;5050567;28;20123;-58
2021/01/04 05:05:21;;;;;;;11.50;2.85;;;;;;;3.48;86.08;102068.50;5051060;28;20045;-59
2021/01/04 05:07:54;;;;;;;10.52;2.78;;;;;;;3.49;85.96;102061.06;5050224;28;20048;-57
2021/01/04 05:10:24;;;;;;;9.75;2.50;;;;;;;3.48;85.77;102054.69;5051173;28;20044;-56
2021/01/04 05:13:02;;;;;;;16.02;2.58;;;;;;;3.49;86.04;102070.19;5049965;28;20052;-58
2021/01/04 05:15:40;;;;;;;10.50;2.35;;;;;;;3.50;85.83;102060.84;5051117;28;20041;-59
2021/01/04 05:18:30;;;;;;;10.25;2.72;;;;;;;3.43;85.76;102060.88;5050179;28;20144;-62
2021/01/04 05:21:19;;;;;;;12.80;2.50;;;;;;;3.46;85.81;102062.34;5050520;28;20049;-61
2021/01/04 05:24:17;;;;;;;12.18;2.75;;;;;;;3.43;85.41;102062.78;5050369;28;20496;-61
2021/01/04 05:27:01;;;;;;;12.63;4.47;;;;;;;3.45;85.51;102074.44;5054211;28;20060;-62
2021/01/04 05:30:03;;;;;;;9.30;2.40;;;;;;;3.46;85.53;102073.38;5054143;28;20045;-64
2021/01/04 05:32:47;;;;;;;10.13;2.67;;;;;;;3.43;85.32;102071.06;5053816;28;20077;-66
2021/01/04 05:35:16;;;;;;;7.65;2.08;;;;;;;3.43;85.18;102071.06;5052546;28;20582;-67
2021/01/04 05:37:54;;;;;;;8.77;2.17;;;;;;;3.39;85.15;102078.97;5052618;28;20051;-69
2021/01/04 05:40:43;;;;;;;11.30;2.70;;;;;;;3.43;85.20;102079.34;5053080;28;20132;-68
2021/01/04 05:43:16;;;;;;;7.07;2.13;;;;;;;3.41;85.08;102084.22;5053268;28;20041;-67
2021/01/04 05:45:52;;;;;;;7.80;2.17;;;;;;;3.43;85.13;102082.09;5054452;28;20122;-66
2021/01/04 05:48:47;;;;;;;7.03;2.10;;;;;;;3.42;85.17;102085.94;5052920;28;20545;-66
2021/01/04 05:51:20;;;;;;;8.65;2.10;;;;;;;3.42;85.21;102083.16;5053814;28;20118;-63
2021/01/04 05:53:46;;;;;;;10.80;2.70;;;;;;;3.43;85.09;102087.63;5053681;28;20049;-62
2021/01/04 05:56:19;;;;;;;10.43;2.28;;;;;;;3.43;85.24;102093.13;5053320;28;20049;-61
2021/01/04 05:58:47;;;;;;;9.23;2.30;;;;;;;3.45;85.13;102091.84;5053256;28;20049;-61
2021/01/04 06:01:21;;;;;;;13.82;2.63;;;;;;;3.45;85.05;102086.34;5053711;28;20083;-60
2021/01/04 06:03:55;;;;;;;12.50;2.58;;;;;;;3.45;85.21;102091.00;5052735;28;20488;-61
2021/01/04 06:06:30;;;;;;;11.32;2.05;;;;;;;3.43;85.17;102084.84;5053699;28;20067;-57
2021/01/04 06:09:01;;;;;;;8.32;2.28;;;;;;;3.42;85.03;102080.41;5053194;28;20051;-57
2021/01/04 06:11:28;;;;;;;11.68;2.35;;;;;;;3.39;85.04;102089.16;5053539;28;20438;-59
2021/01/04 06:14:06;;;;;;;13.50;2.55;;;;;;;3.38;85.14;102090.22;5053054;28;20049;-56
2021/01/04 06:16:33;;;;;;;8.80;2.03;;;;;;;3.39;85.11;102091.91;5053248;28;20076;-58
2021/01/04 06:19:10;;;;;;;8.85;2.28;;;;;;;3.40;85.03;102096.34;5052863;28;20133;-58
2021/01/04 06:21:49;;;;;;;10.80;2.42;;;;;;;3.39;84.94;102092.75;5053644;28;20049;-58
2021/01/04 06:24:24;;;;;;;11.23;2.88;;;;;;;3.39;85.04;102091.91;5052371;28;20044;-59
2021/01/04 06:26:53;;;;;;;9.57;2.20;;;;;;;3.39;84.95;102100.19;5053453;28;20480;-56
2021/01/04 06:29:38;;;;;;;13.15;2.47;;;;;;;3.39;85.12;102105.72;5052670;28;20472;-56
2021/01/04 06:32:09;;;;;;;13.07;2.75;;;;;;;3.38;85.02;102101.25;5052544;28;20531;-58
2021/01/04 06:34:38;;;;;;;8.60;2.03;;;;;;;3.38;84.75;102106.78;5052577;28;20510;-56
2021/01/04 06:37:12;;;;;;;9.98;2.30;;;;;;;3.35;84.68;102109.97;5051351;28;20128;-57
2021/01/04 06:39:40;;;;;;;9.68;2.10;;;;;;;3.33;84.58;102103.81;5052644;28;20045;-56
2021/01/04 06:42:10;;;;;;;8.63;2.03;;;;;;;3.33;84.46;102112.09;5052785;28;20517;-58
2021/01/04 06:44:38;;;;;;;9.98;2.35;;;;;;;3.31;84.63;102109.56;5051965;28;20052;-56
2021/01/04 06:47:25;;;;;;;7.00;1.80;;;;;;;3.30;84.37;102109.78;5052782;28;20053;-55
2021/01/04 06:50:03;;;;;;;5.70;1.70;;;;;;;3.30;84.45;102126.31;5052805;28;20040;-56
2021/01/04 06:53:08;;;;;;;8.07;1.95;;;;;;;3.26;84.30;102114.88;5052376;28;20045;-54
2021/01/04 06:56:05;;;;;;;5.53;2.10;;;;;;;3.26;84.23;102125.91;5051038;28;20049;-57
2021/01/04 06:59:02;;;;;;;9.60;2.72;;;;;;;3.25;84.14;102128.88;5052136;28;20508;-59
2021/01/04 07:02:00;;;;;;;7.05;1.75;;;;;;;3.24;83.70;102128.03;5051939;28;20041;-55
2021/01/04 07:04:52;;;;;;;6.28;1.63;;;;;;;3.23;83.38;102131.03;5046668;28;20083;-58
2021/01/04 07:07:32;;;;;;;9.10;2.00;;;;;;;3.21;83.60;102124.88;5050595;28;20555;-58
2021/01/04 07:10:13;;;;;;;9.57;1.75;;;;;;;3.20;83.24;102128.72;5051984;28;20041;-53
2021/01/04 07:12:54;;;;;;;7.03;1.40;;;;;;;3.19;82.89;102136.16;5051826;28;20553;-57
2021/01/04 07:15:27;;;;;;;4.18;1.42;;;;;;;3.20;82.94;102145.28;5052056;28;20041;-58
2021/01/04 07:18:30;;;;;;;6.82;1.65;;;;;;;3.19;82.84;102147.19;5052335;28;20124;-57
2021/01/04 07:21:08;;;;;;;9.15;1.65;;;;;;;3.23;83.14;102150.31;5051102;28;20036;-58
2021/01/04 07:23:45;;;;;;;8.18;1.60;;;;;;;3.24;83.00;102143.75;5052211;28;20053;-56
2021/01/04 07:26:21;;;;;;;9.40;1.88;;;;;;;3.20;83.00;102148.03;5051770;28;20055;-57
2021/01/04 07:29:02;;;;;;;6.50;1.48;;;;;;;3.20;83.04;102142.53;5051472;28;20460;-57
2021/01/04 07:31:36;;;;;;;8.77;1.77;;;;;;;3.20;82.88;102157.13;5051802;28;20391;-58
2021/01/04 07:34:12;;;;;;;7.40;1.42;;;;;;;3.19;82.84;102165.66;5051497;28;20506;-52
2021/01/04 07:36:43;;;;;;;8.70;1.45;;;;;;;3.18;82.69;102158.44;5051543;28;20037;-56
2021/01/04 07:39:27;;;;;;;9.13;1.50;;;;;;;3.19;83.09;102158.22;5051775;28;20041;-59
2021/01/04 07:42:07;;;;;;;4.60;1.33;;;;;;;3.18;82.67;102172.22;5050863;28;20047;-56
2021/01/04 07:45:04;;;;;;;8.10;1.60;;;;;;;3.18;82.41;102175.84;5051770;28;20045;-55
2021/01/04 07:47:59;;;;;;;6.72;1.60;;;;;;;3.18;82.62;102175.84;5045539;28;20186;-59
2021/01/04 07:51:10;;;;;;;5.78;1.50;;;;;;;3.18;82.80;102170.31;5051451;28;20084;-58
2021/01/04 07:54:05;;;;;;;6.80;1.60;;;;;;;3.15;82.24;102176.25;5031293;28;20055;-54
2021/01/04 07:56:58;;;;;;;4.93;1.40;;;;;;;3.18;82.63;102178.59;5046737;28;20135;-57
2021/01/04 07:59:51;;;;;;;7.60;1.70;;;;;;;3.18;82.67;102177.75;5051116;28;20041;-54
2021/01/04 08:02:45;;;;;;;4.57;1.45;;;;;;;3.18;82.57;102177.75;5048685;28;20049;-58
2021/01/04 08:05:44;;;;;;;5.55;1.38;;;;;;;3.18;82.46;102181.34;5050928;28;20053;-56
2021/01/04 08:08:27;;;;;;;5.80;1.60;;;;;;;3.18;82.62;102194.28;5050413;28;20140;-57
2021/01/04 08:11:41;;;;;;;29.35;2.65;;;;;;;3.14;82.06;102188.34;5030430;28;20548;-57
2021/01/04 08:14:45;;;;;;;9.70;2.00;;;;;;;3.16;82.14;102191.75;5050337;28;20052;-57
2021/01/04 08:17:18;;;;;;;11.23;1.73;;;;;;;3.19;82.44;102184.94;5049964;28;20132;-54
2021/01/04 08:19:48;;;;;;;5.15;1.30;;;;;;;3.20;82.24;102181.13;5051428;28;20396;-58
2021/01/04 08:22:32;;;;;;;7.20;1.55;;;;;;;3.20;82.09;102194.91;5050888;28;20052;-55
2021/01/04 08:25:06;;;;;;;7.95;1.83;;;;;;;3.17;82.00;102189.84;5050601;28;20484;-59
2021/01/04 08:27:50;;;;;;;5.00;1.48;;;;;;;3.20;81.92;102201.25;5050643;28;20112;-60
2021/01/04 08:30:22;;;;;;;5.50;1.60;;;;;;;3.18;81.38;102197.91;5050509;28;20119;-58
2021/01/04 08:32:55;;;;;;;7.95;2.40;;;;;;;3.13;80.56;102202.34;5050764;28;20045;-58
2021/01/04 08:35:41;;;;;;;5.20;1.52;;;;;;;3.13;80.57;102213.38;5050948;28;20049;-57
2021/01/04 08:38:35;;;;;;;6.95;1.98;;;;;;;3.13;80.54;102216.16;5050268;28;20073;-55
2021/01/04 08:41:07;;;;;;;5.75;1.65;;;;;;;3.11;80.54;102202.56;5048990;28;20150;-56
2021/01/04 08:43:41;;;;;;;6.68;1.70;;;;;;;3.14;80.48;102220.59;5050629;28;20076;-56
2021/01/04 08:46:13;;;;;;;4.90;1.48;;;;;;;3.11;80.18;102211.69;5050090;28;20067;-56
2021/01/04 08:48:42;;;;;;;4.93;1.35;;;;;;;3.11;80.05;102217.22;5050624;28;20072;-58
2021/01/04 08:51:12;;;;;;;4.10;1.30;;;;;;;3.14;80.22;102220.59;5050273;28;20084;-56
2021/01/04 08:53:39;;;;;;;5.53;1.50;;;;;;;3.07;79.75;102213.19;5050498;28;20136;-56
2021/01/04 08:56:17;;;;;;;5.85;1.38;;;;;;;3.09;79.46;102230.38;5039658;28;20121;-57
2021/01/04 08:58:46;;;;;;;4.43;1.20;;;;;;;3.13;79.88;102235.47;5049950;28;20528;-56
2021/01/04 09:01:24;;;;;;;4.95;1.33;;;;;;;3.08;79.38;102216.78;5053830;28;20033;-59
2021/01/04 09:04:03;;;;;;;6.25;1.30;;;;;;;3.06;79.49;102225.28;5054308;28;20044;-57
2021/01/04 09:06:32;;;;;;;5.22;1.30;;;;;;;3.03;78.58;102225.72;5043595;28;20048;-56
2021/01/04 09:09:09;;;;;;;5.35;1.10;;;;;;;3.01;77.75;102227.81;5054097;28;20080;-57
2021/01/04 09:11:39;;;;;;;2.78;0.93;;;;;;;3.02;78.17;102231.44;5043691;28;20132;-56
2021/01/04 09:14:15;;;;;;;4.25;0.90;;;;;;;3.03;78.00;102228.47;5053245;28;20037;-55
2021/01/04 09:16:44;;;;;;;4.60;0.90;;;;;;;3.04;77.97;102227.41;5054106;28;20053;-54
2021/01/04 09:19:22;;;;;;;4.88;1.25;;;;;;;3.04;77.72;102227.41;5053354;28;20052;-58
2021/01/04 09:21:49;;;;;;;4.93;1.20;;;;;;;3.03;77.94;102233.97;5054018;28;20136;-58
2021/01/04 09:24:34;;;;;;;3.33;0.80;;;;;;;3.04;78.16;102252.22;5053995;28;20049;-55
2021/01/04 09:27:19;;;;;;;4.47;1.00;;;;;;;3.03;78.37;102233.97;5053121;28;20049;-54
2021/01/04 09:29:51;;;;;;;3.00;0.68;;;;;;;3.05;78.10;102233.75;5053672;28;20047;-58
2021/01/04 09:32:26;;;;;;;3.40;0.80;;;;;;;3.01;77.57;102247.13;5054134;28;20049;-58
2021/01/04 09:34:53;;;;;;;3.80;0.90;;;;;;;3.04;77.72;102237.59;5053059;28;20041;-58
2021/01/04 09:37:22;;;;;;;3.15;1.05;;;;;;;3.01;77.26;102238.84;5053815;28;20107;-57
2021/01/04 09:39:52;;;;;;;3.67;1.13;;;;;;;3.03;77.51;102236.72;5053637;28;20049;-58
2021/01/04 09:42:25;;;;;;;3.13;0.80;;;;;;;3.09;77.85;102244.16;5051884;28;20128;-57
2021/01/04 09:44:53;;;;;;;4.53;0.90;;;;;;;3.15;77.81;102247.13;5053805;28;20074;-55
2021/01/04 09:47:28;;;;;;;6.43;1.30;;;;;;;3.13;77.94;102252.00;5052753;28;20564;-55
2021/01/04 09:50:00;;;;;;;4.38;1.40;;;;;;;3.13;77.38;102252.84;5053636;28;20088;-59
2021/01/04 09:52:34;;;;;;;3.30;0.82;;;;;;;3.13;77.17;102252.84;5053749;28;20051;-57
2021/01/04 09:55:04;;;;;;;3.03;1.10;;;;;;;3.14;77.43;102248.19;5053348;28;20090;-55
2021/01/04 09:57:35;;;;;;;4.13;1.02;;;;;;;3.14;77.22;102249.03;5053293;28;20115;-57
2021/01/04 10:00:13;;;;;;;3.45;0.80;;;;;;;3.16;76.80;102244.16;5053817;28;20076;-57
2021/01/04 10:02:39;;;;;;;4.40;1.30;;;;;;;3.17;76.73;102253.28;5052558;28;20496;-57
2021/01/04 10:05:08;;;;;;;5.30;1.02;;;;;;;3.21;76.49;102249.84;5053391;28;20040;-57
2021/01/04 10:07:35;;;;;;;5.43;1.30;;;;;;;3.19;76.70;102249.25;5052825;28;20059;-57
2021/01/04 10:10:10;;;;;;;4.60;1.02;;;;;;;3.21;77.17;102247.09;5053024;28;20559;-58
2021/01/04 10:12:36;;;;;;;4.72;1.20;;;;;;;3.18;77.13;102263.25;5051548;28;20510;-58
2021/01/04 10:15:15;;;;;;;5.53;1.38;;;;;;;3.24;77.27;102257.69;5053280;28;20473;-55
2021/01/04 10:18:01;;;;;;;3.17;1.00;;;;;;;3.20;77.11;102241.81;5052541;28;20048;-58
2021/01/04 10:20:37;;;;;;;2.90;1.07;;;;;;;3.16;76.50;102249.66;5053369;28;20045;-58
2021/01/04 10:23:06;;;;;;;4.80;1.25;;;;;;;3.19;76.75;102235.44;5052150;28;20045;-57
2021/01/04 10:25:38;;;;;;;3.42;1.00;;;;;;;3.23;76.88;102252.38;5053172;28;20124;-58
2021/01/04 10:28:06;;;;;;;4.03;1.33;;;;;;;3.27;76.95;102253.66;5052526;28;20147;-57
2021/01/04 10:30:35;;;;;;;4.15;1.10;;;;;;;3.32;77.39;102249.19;5052464;28;20045;-56
2021/01/04 10:33:06;;;;;;;3.20;1.13;;;;;;;3.28;77.05;102247.91;5052753;28;20511;-54
2021/01/04 10:35:33;;;;;;;5.57;1.63;;;;;;;3.31;77.12;102235.59;5053065;28;20051;-55
2021/01/04 10:38:09;;;;;;;4.47;1.20;;;;;;;3.28;77.53;102245.16;5052099;28;20057;-56
2021/01/04 10:40:45;;;;;;;5.22;1.30;;;;;;;3.19;77.29;102256.66;5052998;28;20041;-57
2021/01/04 10:43:17;;;;;;;6.10;1.60;;;;;;;3.16;77.28;102252.44;5052303;28;20045;-57
2021/01/04 10:46:23;;;;;;;4.38;1.25;;;;;;;3.05;76.78;102250.31;5049335;28;20060;-57
2021/01/04 10:49:01;;;;;;;2.78;1.00;;;;;;;3.01;76.98;102254.56;5052211;28;20075;-58
2021/01/04 10:51:29;;;;;;;6.10;1.20;;;;;;;2.96;76.70;102240.59;5052159;28;20128;-57
2021/01/04 10:53:56;;;;;;;3.10;1.08;;;;;;;2.99;77.06;102246.53;5050775;28;20083;-54
2021/01/04 10:56:39;;;;;;;5.55;1.30;;;;;;;3.02;76.93;102251.59;5052720;28;20543;-56
2021/01/04 10:59:22;;;;;;;6.47;1.40;;;;;;;3.00;77.10;102250.94;5049492;28;20127;-56
2021/01/04 11:01:51;;;;;;;4.15;1.08;;;;;;;3.01;76.83;102244.38;5045236;28;20074;-59
2021/01/04 11:04:20;;;;;;;4.88;1.48;;;;;;;2.97;76.85;102251.41;5048322;28;20581;-55
2021/01/04 11:06:59;;;;;;;4.97;1.13;;;;;;;2.93;76.58;102239.09;5042309;28;20420;-57
2021/01/04 11:09:27;;;;;;;5.00;1.33;;;;;;;2.93;77.07;102238.25;5047632;28;20091;-56
2021/01/04 11:12:07;;;;;;;4.63;1.10;;;;;;;2.95;77.31;102250.78;5051278;28;20501;-57
2021/01/04 11:14:34;;;;;;;5.75;1.38;;;;;;;2.95;77.36;102236.97;5051800;28;20043;-52
2021/01/04 11:17:13;;;;;;;5.03;1.48;;;;;;;2.90;77.32;102228.50;5051750;28;20080;-57
2021/01/04 11:19:40;;;;;;;5.45;1.40;;;;;;;2.91;77.54;102232.97;5051333;28;20534;-56
2021/01/04 11:22:11;;;;;;;6.70;1.45;;;;;;;2.89;77.62;102229.56;5051321;28;20040;-56
2021/01/04 11:24:38;;;;;;;4.07;1.30;;;;;;;2.89;78.14;102232.31;5050985;28;20170;-54
2021/01/04 11:27:05;;;;;;;7.50;2.10;;;;;;;2.90;78.16;102235.91;5051192;28;20045;-55
2021/01/04 11:29:33;;;;;;;5.22;1.48;;;;;;;2.86;78.04;102229.13;5051442;28;20041;-53
2021/01/04 11:32:00;;;;;;;4.50;1.67;;;;;;;2.89;77.96;102228.72;5051671;28;20049;-55
2021/01/04 11:34:27;;;;;;;4.93;1.70;;;;;;;2.87;77.70;102233.59;5050618;28;20458;-57
2021/01/04 11:36:54;;;;;;;5.28;1.60;;;;;;;2.82;77.81;102223.19;5051481;28;20499;-55
2021/01/04 11:39:22;;;;;;;6.95;1.35;;;;;;;2.82;77.86;102233.38;5050675;28;20037;-54
2021/01/04 11:41:49;;;;;;;7.45;1.35;;;;;;;2.81;77.71;102217.91;5051065;28;20044;-51
2021/01/04 11:44:15;;;;;;;7.18;1.50;;;;;;;2.74;77.66;102226.19;5051169;28;20480;-57
2021/01/04 11:46:42;;;;;;;6.30;1.50;;;;;;;2.76;77.67;102229.59;5050530;28;20124;-56
2021/01/04 11:49:09;;;;;;;4.65;1.60;;;;;;;2.70;77.85;102228.53;5051011;28;20053;-56
2021/01/04 11:51:36;;;;;;;3.33;1.35;;;;;;;2.67;77.32;102208.81;5051423;28;20547;-52
2021/01/04 11:54:04;;;;;;;3.88;1.08;;;;;;;2.67;77.24;102215.19;5050724;28;20052;-57
2021/01/04 11:56:32;;;;;;;5.22;1.52;;;;;;;2.62;77.38;102208.59;5051099;28;20037;-54
2021/01/04 11:58:59;;;;;;;4.10;1.25;;;;;;;2.63;77.32;102213.06;5051171;28;20138;-55
2021/01/04 12:01:26;;;;;;;3.65;1.00;;;;;;;2.68;77.46;102205.00;5049964;28;20127;-56
2021/01/04 12:03:55;;;;;;;3.80;1.42;;;;;;;2.70;77.29;102211.16;5051127;28;20131;-54
2021/01/04 12:06:22;;;;;;;6.78;1.30;;;;;;;2.71;77.61;102202.66;5050786;28;20580;-56
2021/01/04 12:08:49;;;;;;;4.57;1.27;;;;;;;2.72;77.77;102204.38;5050573;28;20107;-54
2021/01/04 12:11:16;;;;;;;3.33;1.15;;;;;;;2.74;77.73;102201.41;5050853;28;20053;-54